createdAt,value
2022-12-24T00:01:37.501Z,7.30
2022-12-24T00:04:06.536Z,7.30
2022-12-24T00:06:34.963Z,7.30
2022-12-24T00:09:03.481Z,7.30
2022-12-24T00:11:33.335Z,7.30
2022-12-24T00:14:01.691Z,7.30
2022-12-24T00:16:29.963Z,7.30
2022-12-24T00:18:58.330Z,7.30
2022-12-24T00:21:29.606Z,7.30
2022-12-24T00:23:57.808Z,7.30
2022-12-24T00:26:28.509Z,7.30
2022-12-24T00:28:58.196Z,7.30
2022-12-24T00:31:26.689Z,7.30
2022-12-24T00:33:55.037Z,7.30
2022-12-24T00:36:23.855Z,7.30
2022-12-24T00:38:52.089Z,7.30
2022-12-24T00:41:26.584Z,7.30
2022-12-24T00:43:55.651Z,7.30
2022-12-24T00:46:26.040Z,7.30
2022-12-24T00:48:54.614Z,7.30
2022-12-24T00:51:24.123Z,7.30
2022-12-24T00:53:52.845Z,7.40
2022-12-24T00:56:21.484Z,7.30
2022-12-24T00:58:50.061Z,7.30
2022-12-24T01:01:18.818Z,7.30
2022-12-24T01:03:48.881Z,7.30
2022-12-24T01:06:17.827Z,7.30
2022-12-24T01:08:46.405Z,7.30
2022-12-24T01:11:14.920Z,7.30
2022-12-24T01:13:43.328Z,7.30
2022-12-24T01:16:17.457Z,7.30
2022-12-24T01:18:45.919Z,7.20
2022-12-24T01:21:16.779Z,7.20
2022-12-24T01:23:45.550Z,7.20
2022-12-24T01:26:13.836Z,7.20
2022-12-24T01:28:42.629Z,7.20
2022-12-24T01:31:16.056Z,7.10
2022-12-24T01:33:47.307Z,7.10
2022-12-24T01:36:20.980Z,7.10
2022-12-24T01:38:49.213Z,7.10
2022-12-24T01:41:36.615Z,7.10
2022-12-24T01:44:33.469Z,7.10
2022-12-24T01:47:10.295Z,7.10
2022-12-24T01:49:40.663Z,7.10
2022-12-24T01:52:14.180Z,7.10
2022-12-24T01:54:48.709Z,7.00
2022-12-24T01:57:21.662Z,7.00
2022-12-24T01:59:54.401Z,7.00
2022-12-24T02:02:23.544Z,7.10
2022-12-24T02:04:58.269Z,7.00
2022-12-24T02:07:28.020Z,7.00
2022-12-24T02:10:00.005Z,7.00
2022-12-24T02:12:30.704Z,7.00
2022-12-24T02:14:59.427Z,7.00
2022-12-24T02:17:36.414Z,7.10
2022-12-24T02:20:37.460Z,7.00
2022-12-24T02:23:39.968Z,7.00
2022-12-24T02:26:25.828Z,7.00
2022-12-24T02:29:22.857Z,7.00
2022-12-24T02:31:57.586Z,7.00
2022-12-24T02:34:35.219Z,7.00
2022-12-24T02:37:07.927Z,7.00
2022-12-24T02:39:41.738Z,7.00
2022-12-24T02:42:12.935Z,7.00
2022-12-24T02:44:45.483Z,7.00
2022-12-24T02:47:16.364Z,7.00
2022-12-24T02:49:46.229Z,7.00
2022-12-24T02:52:30.241Z,7.00
2022-12-24T02:54:59.967Z,7.00
2022-12-24T02:57:39.549Z,6.90
2022-12-24T03:00:10.553Z,6.90
2022-12-24T03:02:57.994Z,6.90
2022-12-24T03:05:36.095Z,6.90
2022-12-24T03:08:14.710Z,6.90
2022-12-24T03:10:48.745Z,6.80
2022-12-24T03:13:20.734Z,6.80
2022-12-24T03:15:50.243Z,6.90
2022-12-24T03:18:23.712Z,6.90
2022-12-24T03:20:57.294Z,6.90
2022-12-24T03:23:26.278Z,7.00
2022-12-24T03:25:54.655Z,7.00
2022-12-24T03:28:27.784Z,7.00
2022-12-24T03:30:56.387Z,7.00
2022-12-24T03:33:25.985Z,7.00
2022-12-24T03:35:54.147Z,7.00
2022-12-24T03:38:22.319Z,7.00
2022-12-24T03:40:50.551Z,7.00
2022-12-24T03:43:18.774Z,7.00
2022-12-24T03:45:47.087Z,7.00
2022-12-24T03:48:15.303Z,7.00
2022-12-24T03:50:45.076Z,7.00
2022-12-24T03:53:13.325Z,7.10
2022-12-24T03:55:41.516Z,7.10
2022-12-24T03:58:09.766Z,7.10
2022-12-24T04:00:37.960Z,7.10
2022-12-24T04:03:06.351Z,7.10
2022-12-24T04:05:34.613Z,7.10
2022-12-24T04:08:04.160Z,7.10
2022-12-24T04:10:32.381Z,7.10
2022-12-24T04:13:00.743Z,7.10
2022-12-24T04:15:28.945Z,7.10
2022-12-24T04:17:57.106Z,7.10
2022-12-24T04:20:25.441Z,7.10
2022-12-24T04:22:54.804Z,7.00
2022-12-24T04:25:24.354Z,7.00
2022-12-24T04:27:55.043Z,6.90
2022-12-24T04:30:23.220Z,6.80
2022-12-24T04:32:53.684Z,6.80
2022-12-24T04:35:22.076Z,6.80
2022-12-24T04:37:50.304Z,6.80
2022-12-24T04:40:18.615Z,6.80
2022-12-24T04:42:48.143Z,6.80
2022-12-24T04:45:16.452Z,6.80
2022-12-24T04:47:44.667Z,6.80
2022-12-24T04:50:13.020Z,6.80
2022-12-24T04:52:43.423Z,6.70
2022-12-24T04:55:11.918Z,6.70
2022-12-24T04:57:40.121Z,6.70
2022-12-24T05:00:11.379Z,6.80
2022-12-24T05:02:39.725Z,6.80
2022-12-24T05:05:08.621Z,6.80
2022-12-24T05:07:39.109Z,6.80
2022-12-24T05:10:08.852Z,6.90
2022-12-24T05:12:37.014Z,6.80
2022-12-24T05:15:05.742Z,6.70
2022-12-24T05:17:35.319Z,6.70
2022-12-24T05:20:03.516Z,6.70
2022-12-24T05:22:48.916Z,6.70
2022-12-24T05:25:34.764Z,6.80
2022-12-24T05:28:03.225Z,6.80
2022-12-24T05:30:31.487Z,6.80
2022-12-24T05:33:01.188Z,6.80
2022-12-24T05:35:31.945Z,6.80
2022-12-24T05:38:00.428Z,6.80
2022-12-24T05:40:28.598Z,6.80
2022-12-24T05:42:56.764Z,6.90
2022-12-24T05:45:25.038Z,6.80
2022-12-24T05:47:53.202Z,6.80
2022-12-24T05:50:22.807Z,6.70
2022-12-24T05:53:05.906Z,6.70
2022-12-24T05:55:34.795Z,6.70
2022-12-24T05:58:03.034Z,6.70
2022-12-24T06:00:31.188Z,6.70
2022-12-24T06:02:59.897Z,6.70
2022-12-24T06:05:29.457Z,6.70
2022-12-24T06:07:57.718Z,6.70
2022-12-24T06:10:25.996Z,6.70
2022-12-24T06:12:54.161Z,6.80
2022-12-24T06:15:24.332Z,6.70
2022-12-24T06:17:52.706Z,6.70
2022-12-24T06:20:21.026Z,6.70
2022-12-24T06:22:52.866Z,6.70
2022-12-24T06:25:21.135Z,6.70
2022-12-24T06:27:49.310Z,6.70
2022-12-24T06:30:18.664Z,6.60
2022-12-24T06:32:47.194Z,6.50
2022-12-24T06:35:15.426Z,6.50
2022-12-24T06:37:43.695Z,6.50
2022-12-24T06:40:13.372Z,6.50
2022-12-24T06:42:41.567Z,6.50
2022-12-24T06:45:10.552Z,6.60
2022-12-24T06:47:41.248Z,6.60
2022-12-24T06:50:10.289Z,6.60
2022-12-24T06:52:38.603Z,6.50
2022-12-24T06:55:07.682Z,6.50
2022-12-24T06:57:37.238Z,6.50
2022-12-24T07:00:06.509Z,6.50
2022-12-24T07:02:34.830Z,6.50
2022-12-24T07:05:03.083Z,6.50
2022-12-24T07:07:31.249Z,6.50
2022-12-24T07:09:59.553Z,6.60
2022-12-24T07:12:28.321Z,6.60
2022-12-24T07:14:57.867Z,6.50
2022-12-24T07:17:26.214Z,6.50
2022-12-24T07:19:54.775Z,6.60
2022-12-24T07:22:23.026Z,6.60
2022-12-24T07:24:51.606Z,6.60
2022-12-24T07:27:19.928Z,6.60
2022-12-24T07:29:48.376Z,6.50
2022-12-24T07:32:20.455Z,6.40
2022-12-24T07:34:48.677Z,6.40
2022-12-24T07:37:17.827Z,6.40
2022-12-24T07:39:46.233Z,6.40
2022-12-24T07:42:14.457Z,6.40
2022-12-24T07:44:45.863Z,6.40
2022-12-24T07:47:14.101Z,6.50
2022-12-24T07:49:43.987Z,6.50
2022-12-24T07:52:12.139Z,6.50
2022-12-24T07:54:40.484Z,6.50
2022-12-24T07:57:08.936Z,6.40
2022-12-24T07:59:37.127Z,6.40
2022-12-24T08:02:05.467Z,6.40
2022-12-24T08:04:36.387Z,6.40
2022-12-24T08:07:06.066Z,6.40
2022-12-24T08:09:34.398Z,6.50
2022-12-24T08:12:06.278Z,6.50
2022-12-24T08:14:34.543Z,6.60
2022-12-24T08:17:02.689Z,6.60
2022-12-24T08:19:30.916Z,6.60
2022-12-24T08:21:59.184Z,6.60
2022-12-24T08:24:28.786Z,6.70
2022-12-24T08:26:57.010Z,6.60
2022-12-24T08:29:25.302Z,6.70
2022-12-24T08:31:53.565Z,6.70
2022-12-24T08:34:21.840Z,6.70
2022-12-24T08:36:52.293Z,6.70
2022-12-24T08:39:20.706Z,6.80
2022-12-24T08:41:50.265Z,6.80
2022-12-24T08:44:18.632Z,6.80
2022-12-24T08:46:46.866Z,6.80
2022-12-24T08:49:15.252Z,6.90
2022-12-24T08:51:43.472Z,6.80
2022-12-24T08:54:11.688Z,6.80
2022-12-24T08:56:39.842Z,6.80
2022-12-24T08:59:09.460Z,6.80
2022-12-24T09:01:37.908Z,6.80
2022-12-24T09:04:06.351Z,6.80
2022-12-24T09:06:34.937Z,6.80
2022-12-24T09:09:03.261Z,6.90
2022-12-24T09:11:31.799Z,6.90
2022-12-24T09:13:59.936Z,7.00
2022-12-24T09:16:29.883Z,7.00
2022-12-24T09:18:58.427Z,7.00
2022-12-24T09:21:26.649Z,7.00
2022-12-24T09:23:54.902Z,7.00
2022-12-24T09:26:25.545Z,7.00
2022-12-24T09:28:54.604Z,7.00
2022-12-24T09:31:23.150Z,7.00
2022-12-24T09:33:53.050Z,7.00
2022-12-24T09:36:21.775Z,7.00
2022-12-24T09:38:50.482Z,7.00
2022-12-24T09:41:31.978Z,7.00
2022-12-24T09:44:04.984Z,7.00
2022-12-24T09:46:36.228Z,7.00
2022-12-24T09:49:15.111Z,6.90
2022-12-24T09:51:46.892Z,7.00
2022-12-24T09:54:19.149Z,7.00
2022-12-24T09:56:49.308Z,7.00
2022-12-24T09:59:22.746Z,7.00
2022-12-24T10:01:53.424Z,7.10
2022-12-24T10:04:28.234Z,7.00
2022-12-24T10:07:03.509Z,7.10
2022-12-24T10:09:41.529Z,7.10
2022-12-24T10:12:21.955Z,7.10
2022-12-24T10:15:02.441Z,7.10
2022-12-24T10:17:43.449Z,7.10
2022-12-24T10:20:34.195Z,7.10
2022-12-24T10:23:11.072Z,7.10
2022-12-24T10:25:46.814Z,7.10
2022-12-24T10:28:18.199Z,7.10
2022-12-24T10:30:50.569Z,7.10
2022-12-24T10:33:23.763Z,7.20
2022-12-24T10:35:57.394Z,7.20
2022-12-24T10:38:25.820Z,7.20
2022-12-24T10:40:56.438Z,7.20
2022-12-24T10:43:26.304Z,7.30
2022-12-24T10:45:57.879Z,7.30
2022-12-24T10:48:30.608Z,7.30
2022-12-24T10:51:06.378Z,7.30
2022-12-24T10:53:41.524Z,7.30
2022-12-24T10:56:12.118Z,7.30
2022-12-24T10:58:45.573Z,7.30
2022-12-24T11:01:14.581Z,7.30
2022-12-24T11:03:43.191Z,7.30
2022-12-24T11:06:15.109Z,7.30
2022-12-24T11:08:45.702Z,7.40
2022-12-24T11:11:16.447Z,7.40
2022-12-24T11:13:46.443Z,7.40
2022-12-24T11:16:22.071Z,7.50
2022-12-24T11:18:52.600Z,7.50
2022-12-24T11:21:25.745Z,7.40
2022-12-24T11:23:56.409Z,7.40
2022-12-24T11:26:27.669Z,7.40
2022-12-24T11:29:15.949Z,7.40
2022-12-24T11:31:45.232Z,7.50
2022-12-24T11:34:28.064Z,7.50
2022-12-24T11:37:14.669Z,7.50
2022-12-24T11:39:49.865Z,7.50
2022-12-24T11:42:27.466Z,7.50
2022-12-24T11:44:58.011Z,7.60
2022-12-24T11:47:37.561Z,7.60
2022-12-24T11:50:27.668Z,7.60
2022-12-24T11:53:06.815Z,7.60
2022-12-24T11:55:45.725Z,7.60
2022-12-24T11:58:21.545Z,7.60
2022-12-24T12:00:51.871Z,7.60
2022-12-24T12:03:30.939Z,7.60
2022-12-24T12:06:04.824Z,7.60
2022-12-24T12:08:36.658Z,7.50
2022-12-24T12:11:11.039Z,7.40
2022-12-24T12:13:41.829Z,7.40
2022-12-24T12:16:19.949Z,7.40
2022-12-24T12:18:54.004Z,7.40
2022-12-24T12:21:26.325Z,7.30
2022-12-24T12:23:59.977Z,7.30
2022-12-24T12:26:32.217Z,7.30
2022-12-24T12:29:05.810Z,7.40
2022-12-24T12:31:37.607Z,7.40
2022-12-24T12:34:11.080Z,7.50
2022-12-24T12:36:46.433Z,7.40
2022-12-24T12:39:16.448Z,7.50
2022-12-24T12:41:56.125Z,7.40
2022-12-24T12:44:49.769Z,7.40
2022-12-24T12:47:34.393Z,7.40
2022-12-24T12:50:14.685Z,7.40
2022-12-24T12:52:56.280Z,7.40
2022-12-24T12:55:40.210Z,7.40
2022-12-24T12:58:16.741Z,7.30
2022-12-24T13:00:48.596Z,7.20
2022-12-24T13:03:40.632Z,7.20
2022-12-24T13:06:40.782Z,7.20
2022-12-24T13:09:30.866Z,7.30
2022-12-24T13:12:21.927Z,7.30
2022-12-24T13:15:02.471Z,7.30
2022-12-24T13:17:53.909Z,7.20
2022-12-24T13:20:27.168Z,7.10
2022-12-24T13:23:00.438Z,7.10
2022-12-24T13:25:35.058Z,7.20
2022-12-24T13:28:34.360Z,7.20
2022-12-24T13:31:25.373Z,7.20
2022-12-24T13:33:55.963Z,7.20
2022-12-24T13:36:24.764Z,7.20
2022-12-24T13:38:53.909Z,7.20
2022-12-24T13:41:55.574Z,7.20
2022-12-24T13:44:36.155Z,7.20
2022-12-24T13:47:32.253Z,7.20
2022-12-24T13:50:22.131Z,7.20
2022-12-24T13:52:53.424Z,7.20
2022-12-24T13:55:24.305Z,7.20
2022-12-24T13:57:59.140Z,7.20
2022-12-24T14:00:41.043Z,7.20
2022-12-24T14:03:23.211Z,7.30
2022-12-24T14:05:58.603Z,7.20
2022-12-24T14:08:35.073Z,7.20
2022-12-24T14:11:10.946Z,7.20
2022-12-24T14:14:26.879Z,7.20
2022-12-24T14:16:59.312Z,7.20
2022-12-24T14:19:37.076Z,7.10
2022-12-24T14:22:21.173Z,7.10
2022-12-24T14:24:57.449Z,7.10
2022-12-24T14:27:32.859Z,7.10
2022-12-24T14:30:06.751Z,7.10
2022-12-24T14:32:38.245Z,7.10
2022-12-24T14:35:08.262Z,7.10
2022-12-24T14:37:37.000Z,7.10
2022-12-24T14:40:07.402Z,7.10
2022-12-24T14:42:43.900Z,7.10
2022-12-24T14:45:24.313Z,7.00
2022-12-24T14:48:00.439Z,7.00
2022-12-24T14:50:50.154Z,6.90
2022-12-24T14:53:27.140Z,6.80
2022-12-24T14:55:55.405Z,6.80
2022-12-24T14:58:29.321Z,6.80
2022-12-24T15:00:59.353Z,6.80
2022-12-24T15:03:31.520Z,6.80
2022-12-24T15:06:03.189Z,6.70
2022-12-24T15:08:33.969Z,6.70
2022-12-24T15:11:05.269Z,6.60
2022-12-24T15:13:37.418Z,6.60
2022-12-24T15:16:09.128Z,6.60
2022-12-24T15:18:48.203Z,6.60
2022-12-24T15:21:20.929Z,6.50
2022-12-24T15:23:50.850Z,6.50
2022-12-24T15:26:26.239Z,6.50
2022-12-24T15:29:02.819Z,6.40
2022-12-24T15:31:32.849Z,6.40
2022-12-24T15:34:02.453Z,6.30
2022-12-24T15:36:32.919Z,6.30
2022-12-24T15:39:04.030Z,6.30
2022-12-24T15:41:59.237Z,6.30
2022-12-24T15:44:28.151Z,6.30
2022-12-24T15:47:00.032Z,6.20
2022-12-24T15:49:31.727Z,6.20
2022-12-24T15:52:05.652Z,6.20
2022-12-24T15:54:34.843Z,6.20
2022-12-24T15:57:14.541Z,6.20
2022-12-24T15:59:43.237Z,6.10
2022-12-24T16:02:40.068Z,6.20
2022-12-24T16:05:40.233Z,6.10
2022-12-24T16:08:25.196Z,6.00
2022-12-24T16:11:07.294Z,6.00
2022-12-24T16:13:37.894Z,6.10
2022-12-24T16:16:09.265Z,6.00
2022-12-24T16:18:39.463Z,6.10
2022-12-24T16:21:09.862Z,6.10
2022-12-24T16:23:41.082Z,6.00
2022-12-24T16:26:11.582Z,6.00
2022-12-24T16:28:39.894Z,6.00
2022-12-24T16:31:08.309Z,6.00
2022-12-24T16:33:36.519Z,6.00
2022-12-24T16:36:05.245Z,5.90
2022-12-24T16:38:54.784Z,5.90
2022-12-24T16:41:23.975Z,6.00
2022-12-24T16:43:51.514Z,5.90
2022-12-24T16:46:20.056Z,5.90
2022-12-24T16:48:49.672Z,5.90
2022-12-24T16:51:17.860Z,6.00
2022-12-24T16:53:47.443Z,5.90
2022-12-24T16:56:17.138Z,5.90
2022-12-24T16:58:45.313Z,5.90
2022-12-24T17:01:13.644Z,5.90
2022-12-24T17:03:42.045Z,5.90
2022-12-24T17:06:10.794Z,6.00
2022-12-24T17:08:39.271Z,5.90
2022-12-24T17:11:08.966Z,6.00
2022-12-24T17:13:37.239Z,5.90
2022-12-24T17:16:06.220Z,5.90
2022-12-24T17:18:34.638Z,5.80
2022-12-24T17:21:03.793Z,5.70
2022-12-24T17:23:32.232Z,5.70
2022-12-24T17:26:00.549Z,5.70
2022-12-24T17:28:30.430Z,5.60
2022-12-24T17:30:59.121Z,5.50
2022-12-24T17:33:27.590Z,5.50
2022-12-24T17:35:55.841Z,5.40
2022-12-24T17:38:24.655Z,5.50
2022-12-24T17:40:53.080Z,5.40
2022-12-24T17:43:21.411Z,5.40
2022-12-24T17:45:51.343Z,5.50
2022-12-24T17:48:19.819Z,5.50
2022-12-24T17:50:48.404Z,5.50
2022-12-24T17:53:19.450Z,5.50
2022-12-24T17:55:48.531Z,5.50
2022-12-24T17:58:17.077Z,5.50
2022-12-24T18:00:49.301Z,5.60
2022-12-24T18:03:19.209Z,5.70
2022-12-24T18:05:47.656Z,5.70
2022-12-24T18:08:16.829Z,5.70
2022-12-24T18:10:45.030Z,5.60
2022-12-24T18:13:19.103Z,5.60
2022-12-24T18:15:47.755Z,5.60
2022-12-24T18:18:19.764Z,5.60
2022-12-24T18:20:47.910Z,5.60
2022-12-24T18:23:16.063Z,5.60
2022-12-24T18:25:44.243Z,5.60
2022-12-24T18:28:12.462Z,5.70
2022-12-24T18:30:40.712Z,5.70
2022-12-24T18:33:08.936Z,5.70
2022-12-24T18:35:38.471Z,5.70
2022-12-24T18:38:06.630Z,5.70
2022-12-24T18:40:38.019Z,5.60
2022-12-24T18:43:06.276Z,5.50
2022-12-24T18:45:34.447Z,5.40
2022-12-24T18:48:02.754Z,5.40
2022-12-24T18:50:30.942Z,5.30
2022-12-24T18:53:00.559Z,5.30
2022-12-24T18:55:28.983Z,5.20
2022-12-24T18:57:57.170Z,5.10
2022-12-24T19:00:25.455Z,5.20
2022-12-24T19:02:53.941Z,5.20
2022-12-24T19:05:22.281Z,5.20
2022-12-24T19:07:50.475Z,5.20
2022-12-24T19:10:20.232Z,5.20
2022-12-24T19:12:48.491Z,5.20
2022-12-24T19:15:16.747Z,5.20
2022-12-24T19:17:45.120Z,5.40
2022-12-24T19:20:13.810Z,5.40
2022-12-24T19:22:44.279Z,5.40
2022-12-24T19:25:12.449Z,5.40
2022-12-24T19:27:41.978Z,5.40
2022-12-24T19:30:11.236Z,5.40
2022-12-24T19:32:39.510Z,5.50
2022-12-24T19:35:08.183Z,5.40
2022-12-24T19:37:36.355Z,5.40
2022-12-24T19:40:04.728Z,5.30
2022-12-24T19:42:32.877Z,5.20
2022-12-24T19:45:02.411Z,5.20
2022-12-24T19:47:30.603Z,5.10
2022-12-24T19:49:59.259Z,5.20
2022-12-24T19:52:29.708Z,5.20
2022-12-24T19:54:57.949Z,5.20
2022-12-24T19:57:26.151Z,5.20
2022-12-24T19:59:54.460Z,5.30
2022-12-24T20:02:24.566Z,5.30
2022-12-24T20:04:52.882Z,5.20
2022-12-24T20:07:21.076Z,5.20
2022-12-24T20:09:49.250Z,5.00
2022-12-24T20:12:17.439Z,5.10
2022-12-24T20:14:45.837Z,5.10
2022-12-24T20:17:14.893Z,5.00
2022-12-24T20:19:46.667Z,5.00
2022-12-24T20:22:14.844Z,5.10
2022-12-24T20:24:43.146Z,5.10
2022-12-24T20:27:11.726Z,5.10
2022-12-24T20:29:39.949Z,5.10
2022-12-24T20:32:08.284Z,5.10
2022-12-24T20:34:36.766Z,5.00
2022-12-24T20:37:06.444Z,5.00
2022-12-24T20:39:36.926Z,5.00
2022-12-24T20:42:05.431Z,5.00
2022-12-24T20:44:33.584Z,5.00
2022-12-24T20:47:01.984Z,5.00
2022-12-24T20:49:30.175Z,5.00
2022-12-24T20:51:58.445Z,5.10
2022-12-24T20:54:27.992Z,5.00
2022-12-24T20:56:57.907Z,5.00
2022-12-24T20:59:27.305Z,5.00
2022-12-24T21:01:55.822Z,5.00
2022-12-24T21:04:26.470Z,5.00
2022-12-24T21:06:54.632Z,5.00
2022-12-24T21:09:22.821Z,5.10
2022-12-24T21:12:09.673Z,5.10
2022-12-24T21:14:37.947Z,5.20
2022-12-24T21:17:10.525Z,5.20
2022-12-24T21:19:41.838Z,5.20
2022-12-24T21:22:10.038Z,5.30
2022-12-24T21:24:41.602Z,5.30
2022-12-24T21:27:11.127Z,5.30
2022-12-24T21:29:39.323Z,5.30
2022-12-24T21:32:09.871Z,5.30
2022-12-24T21:34:38.149Z,5.30
2022-12-24T21:37:06.449Z,5.30
2022-12-24T21:39:34.732Z,5.30
2022-12-24T21:42:02.925Z,5.30
2022-12-24T21:44:32.527Z,5.30
2022-12-24T21:47:00.744Z,5.30
2022-12-24T21:49:48.600Z,5.30
2022-12-24T21:52:17.071Z,5.30
2022-12-24T21:54:44.367Z,5.30
2022-12-24T21:57:29.804Z,5.40
2022-12-24T22:00:20.903Z,5.40
2022-12-24T22:02:50.309Z,5.40
2022-12-24T22:05:18.733Z,5.40
2022-12-24T22:08:06.949Z,5.30
2022-12-24T22:10:52.934Z,5.30
2022-12-24T22:13:22.229Z,5.40
2022-12-24T22:15:53.508Z,5.30
2022-12-24T22:18:23.511Z,5.40
2022-12-24T22:20:52.801Z,5.40
2022-12-24T22:23:21.490Z,5.40
2022-12-24T22:25:49.743Z,5.40
2022-12-24T22:28:18.079Z,5.40
2022-12-24T22:30:46.294Z,5.40
2022-12-24T22:33:15.917Z,5.40
2022-12-24T22:35:46.377Z,5.40
2022-12-24T22:38:14.555Z,5.30
2022-12-24T22:40:42.913Z,5.30
2022-12-24T22:43:11.400Z,5.30
2022-12-24T22:45:40.230Z,5.20
2022-12-24T22:48:08.578Z,5.10
2022-12-24T22:50:41.052Z,5.00
2022-12-24T22:53:11.563Z,5.00
2022-12-24T22:55:39.772Z,5.10
2022-12-24T22:58:08.028Z,5.10
2022-12-24T23:00:41.526Z,5.10
2022-12-24T23:03:10.639Z,5.10
2022-12-24T23:05:40.842Z,5.00
2022-12-24T23:08:10.068Z,5.00
2022-12-24T23:10:39.195Z,5.00
2022-12-24T23:13:39.101Z,5.10
2022-12-24T23:16:08.729Z,5.10
2022-12-24T23:18:36.999Z,5.10
2022-12-24T23:21:08.450Z,5.10
2022-12-24T23:23:37.593Z,5.10
2022-12-24T23:26:07.277Z,5.10
2022-12-24T23:28:35.574Z,5.00
2022-12-24T23:31:03.897Z,5.10
2022-12-24T23:33:32.287Z,5.10
2022-12-24T23:36:00.826Z,5.10
2022-12-24T23:38:31.056Z,5.10
2022-12-24T23:41:00.475Z,5.20
2022-12-24T23:43:28.997Z,5.10
2022-12-24T23:45:57.675Z,5.10
2022-12-24T23:48:28.713Z,5.10
2022-12-24T23:51:05.590Z,5.10
2022-12-24T23:53:35.755Z,5.10
2022-12-24T23:56:04.545Z,5.20
2022-12-24T23:58:33.149Z,5.10
